Time;durP1;ratioP1;P1;durP2;ratioP2;P2;SDS_P1;SDS_P2;PMS_P1;PMS_P2;Temp;Humidity;BMP_temperature;BMP_pressure;BME280_temperature;BME280_humidity;BME280_pressure;Samples;Min_cycle;Max_cycle;Signal;HPM_P1;HPM_P2
2022/11/11 06:37:57;;;;;;;3.80;2.70;;;3.60;99.90;;;;;;5052488;28;20206;-93
2022/11/11 06:43:48;;;;;;;4.53;3.43;;;3.60;99.90;;;;;;5034963;28;20212;-93
2022/11/11 06:49:44;;;;;;;3.60;2.00;;;4.40;99.90;;;;;;5036079;28;20174;-93
2022/11/11 10:52:44;;;;;;;3.90;1.60;;;13.60;61.60;;;;;;5188707;22;20236;-92
2022/11/11 10:59:00;;;;;;;5.80;1.63;;;13.50;60.30;;;;;;5062169;28;20597;-91
2022/11/11 11:01:33;;;;;;;3.53;1.80;;;13.70;61.70;;;;;;5059220;28;20281;-90
2022/11/11 11:04:45;;;;;;;3.38;2.20;;;13.70;61.30;;;;;;5056273;28;20304;-91
2022/11/11 11:07:18;;;;;;;2.17;1.73;;;13.70;57.10;;;;;;5046270;28;20241;-91
2022/11/11 11:10:27;;;;;;;3.40;2.22;;;13.70;58.00;;;;;;5053297;28;20288;-91
2022/11/11 11:19:28;;;;;;;2.97;2.10;;;13.70;54.30;;;;;;5056438;28;20205;-91
2022/11/11 11:22:51;;;;;;;6.60;2.30;;;13.80;49.30;;;;;;5056668;28;20677;-91
2022/11/11 11:25:21;;;;;;;6.47;2.20;;;13.80;45.50;;;;;;5055250;28;20201;-91
2022/11/11 11:28:12;;;;;;;5.78;2.35;;;14.10;45.40;;;;;;5056582;28;20606;-91
2022/11/11 11:30:59;;;;;;;5.10;2.50;;;14.30;43.10;;;;;;5056167;28;20190;-91
2022/11/11 11:33:28;;;;;;;5.45;2.17;;;14.40;40.60;;;;;;5049566;28;20292;-91
2022/11/11 11:35:54;;;;;;;4.10;2.20;;;14.50;39.80;;;;;;5055310;28;20226;-92
2022/11/11 11:38:42;;;;;;;6.10;2.67;;;14.70;39.20;;;;;;5052986;28;20202;-91
2022/11/11 11:41:09;;;;;;;2.40;2.10;;;14.60;39.40;;;;;;5054468;28;20231;-91
2022/11/11 11:59:46;;;;;;;3.80;2.30;;;14.40;43.00;;;;;;5061938;28;20185;-95
2022/11/11 12:08:35;;;;;;;5.65;2.65;;;13.90;46.00;;;;;;5061696;28;20301;-92
2022/11/11 12:11:10;;;;;;;4.55;2.70;;;13.90;50.40;;;;;;5054144;28;20253;-92
2022/11/11 12:14:23;;;;;;;7.65;2.70;;;13.90;50.40;;;;;;5054160;28;20633;-92
2022/11/11 12:16:57;;;;;;;7.30;2.65;;;13.90;50.40;;;;;;5056734;28;20252;-94
2022/11/11 12:26:01;;;;;;;10.13;3.40;;;13.80;51.40;;;;;;5024214;28;20211;-94
2022/11/11 12:38:59;;;;;;;6.35;3.03;;;13.70;56.70;;;;;;4959113;29;20216;-94
2022/11/11 12:42:08;;;;;;;5.00;3.13;;;13.70;56.00;;;;;;4970920;28;20720;-93
2022/11/11 12:45:21;;;;;;;7.85;3.58;;;13.70;57.10;;;;;;4970811;28;20299;-92
2022/11/11 12:48:03;;;;;;;7.10;3.50;;;13.80;59.40;;;;;;4967932;28;20594;-92
2022/11/11 12:53:58;;;;;;;4.85;3.40;;;13.70;62.20;;;;;;5047737;23;20232;-92
2022/11/11 12:56:47;;;;;;;5.65;3.00;;;13.60;64.60;;;;;;5050703;28;20197;-92
2022/11/11 13:03:01;;;;;;;4.38;2.97;;;13.30;67.60;;;;;;5038388;28;20257;-92
2022/11/11 13:16:22;;;;;;;3.65;2.88;;;12.90;73.60;;;;;;5054800;28;20257;-93
2022/11/11 13:50:05;;;;;;;7.80;4.10;;;11.90;86.60;;;;;;5017264;28;20179;-95
2022/11/11 13:52:34;;;;;;;5.68;3.15;;;11.80;87.60;;;;;;5014953;28;20213;-95
2022/11/11 14:38:33;;;;;;;6.15;3.10;;;11.80;85.30;;;;;;5013787;28;20640;-94
2022/11/11 14:54:43;;;;;;;6.88;3.55;;;11.50;90.60;;;;;;5141619;23;20241;-94
2022/11/11 14:58:00;;;;;;;6.65;2.97;;;11.50;90.60;;;;;;5061081;28;20269;-93
2022/11/11 15:03:54;;;;;;;5.25;3.28;;;11.50;91.30;;;;;;5057812;28;20264;-93
2022/11/11 15:06:35;;;;;;;3.72;3.40;;;11.40;91.40;;;;;;5056617;28;20194;-92
2022/11/11 15:12:26;;;;;;;6.65;3.65;;;11.40;92.20;;;;;;5050185;28;20247;-91
2022/11/11 15:15:20;;;;;;;5.47;4.07;;;11.30;92.60;;;;;;5055153;28;20296;-91
2022/11/11 15:18:19;;;;;;;5.22;4.00;;;11.20;93.30;;;;;;5053463;28;20194;-91
2022/11/11 15:21:07;;;;;;;4.53;3.92;;;11.20;93.80;;;;;;5056408;28;20196;-91
2022/11/11 15:23:58;;;;;;;7.63;4.70;;;11.00;94.10;;;;;;5050564;28;20292;-91
2022/11/11 15:30:11;;;;;;;6.82;4.90;;;10.80;95.40;;;;;;4992578;28;20620;-91
2022/11/11 15:32:54;;;;;;;5.47;4.75;;;10.70;95.90;;;;;;4994892;28;20227;-90
2022/11/11 15:35:33;;;;;;;7.13;5.22;;;10.60;96.00;;;;;;4990045;28;20235;-91
2022/11/11 16:21:38;;;;;;;9.27;5.57;;;9.90;99.90;;;;;;5076369;28;20232;-93
2022/11/11 16:30:53;;;;;;;10.75;5.90;;;9.90;99.90;;;;;;5062366;28;20196;-93
2022/11/11 16:47:16;;;;;;;16.42;13.90;;;9.70;99.90;;;;;;5074505;28;20182;-91
2022/11/11 16:49:46;;;;;;;17.20;11.93;;;9.80;99.90;;;;;;5074864;28;20280;-93
2022/11/11 16:52:41;;;;;;;13.88;10.65;;;9.70;99.90;;;;;;5071841;28;20735;-93
2022/11/11 16:58:59;;;;;;;13.20;8.93;;;9.50;99.90;;;;;;5054400;28;20206;-93
2022/11/11 17:01:41;;;;;;;18.73;14.88;;;9.50;99.90;;;;;;5050895;28;20228;-92
2022/11/11 17:07:55;;;;;;;17.02;11.05;;;9.60;99.90;;;;;;5013022;28;20214;-92
2022/11/11 17:10:40;;;;;;;14.73;12.05;;;9.50;99.90;;;;;;5008932;28;20701;-90
2022/11/11 17:16:32;;;;;;;7.50;6.45;;;9.20;99.90;;;;;;5011076;28;20226;-93
2022/11/11 17:22:20;;;;;;;12.68;10.45;;;8.70;99.90;;;;;;5008232;28;20257;-94
2022/11/11 17:24:52;;;;;;;9.98;7.55;;;8.90;99.90;;;;;;5008588;28;20214;-93
2022/11/11 17:27:19;;;;;;;9.32;8.25;;;8.90;99.90;;;;;;5012277;28;20798;-90
2022/11/11 17:29:58;;;;;;;8.88;7.47;;;8.80;99.90;;;;;;5029813;28;20210;-90
2022/11/11 17:32:29;;;;;;;12.65;8.65;;;8.80;99.90;;;;;;5042714;28;20700;-89
2022/11/11 17:34:56;;;;;;;16.52;12.15;;;8.70;99.90;;;;;;5037808;28;20211;-90
2022/11/11 17:37:23;;;;;;;11.55;9.23;;;8.60;99.90;;;;;;5041006;28;20213;-90
2022/11/11 17:39:52;;;;;;;13.02;10.77;;;8.70;99.90;;;;;;5037980;28;20332;-90
2022/11/11 17:42:22;;;;;;;16.83;11.70;;;8.70;99.90;;;;;;5032144;28;20636;-90
2022/11/11 17:44:48;;;;;;;13.57;11.68;;;8.80;99.90;;;;;;5029683;28;20214;-91
2022/11/11 17:47:15;;;;;;;14.50;9.63;;;9.00;99.90;;;;;;5456493;23;20313;-90
2022/11/11 17:49:47;;;;;;;13.27;9.88;;;9.00;99.90;;;;;;5030996;28;20641;-88
2022/11/11 17:52:15;;;;;;;10.63;7.75;;;8.90;99.90;;;;;;5027855;28;20277;-89
2022/11/11 17:54:52;;;;;;;11.50;10.25;;;8.80;99.90;;;;;;5010609;28;20360;-90
2022/11/11 17:57:22;;;;;;;14.63;9.68;;;8.70;99.90;;;;;;5008421;28;21262;-90
2022/11/11 17:59:49;;;;;;;12.05;10.45;;;8.70;99.90;;;;;;5013225;28;20839;-90
2022/11/11 18:02:37;;;;;;;11.52;10.23;;;8.60;99.90;;;;;;5011062;28;20227;-92
2022/11/11 18:05:07;;;;;;;11.68;8.75;;;8.70;99.90;;;;;;5008753;28;20231;-89
2022/11/11 18:07:34;;;;;;;12.52;8.63;;;8.60;99.90;;;;;;5009652;28;20707;-90
2022/11/11 18:10:01;;;;;;;12.20;8.52;;;8.40;99.90;;;;;;5007313;28;20234;-89
2022/11/11 18:12:34;;;;;;;15.43;11.25;;;8.30;99.90;;;;;;4990440;28;20218;-89
2022/11/11 18:15:01;;;;;;;10.70;8.38;;;8.50;99.90;;;;;;5006327;28;20257;-90
2022/11/11 18:17:28;;;;;;;11.25;9.27;;;8.60;99.90;;;;;;5010594;28;20218;-89
2022/11/11 18:19:58;;;;;;;11.82;9.70;;;8.70;99.90;;;;;;5007913;28;20286;-90
2022/11/11 18:22:27;;;;;;;14.35;10.55;;;8.80;99.90;;;;;;5008848;28;20199;-90
2022/11/11 18:25:05;;;;;;;13.13;10.23;;;8.80;99.90;;;;;;5010115;28;20219;-90
2022/11/11 18:27:34;;;;;;;16.35;11.85;;;8.90;99.90;;;;;;5006220;28;20248;-90
2022/11/11 18:30:01;;;;;;;16.92;13.07;;;8.80;99.90;;;;;;5006634;28;20290;-89
2022/11/11 18:32:28;;;;;;;18.45;12.50;;;8.80;99.90;;;;;;5008107;28;20766;-91
2022/11/11 18:34:55;;;;;;;18.50;13.23;;;8.80;99.90;;;;;;5009049;28;20214;-91
2022/11/11 18:37:22;;;;;;;15.13;13.15;;;8.90;99.90;;;;;;5007484;28;20283;-90
2022/11/11 18:39:50;;;;;;;17.50;12.23;;;8.90;99.90;;;;;;5008218;28;20201;-90
2022/11/11 18:42:17;;;;;;;17.00;12.80;;;8.90;99.90;;;;;;5009254;28;20199;-90
2022/11/11 18:44:46;;;;;;;16.10;13.20;;;8.60;99.90;;;;;;5008616;28;20293;-90
2022/11/11 18:47:13;;;;;;;16.60;13.50;;;8.40;99.90;;;;;;5009296;28;20290;-90
2022/11/11 18:49:40;;;;;;;19.83;14.20;;;8.20;99.90;;;;;;5009922;28;20301;-89
2022/11/11 18:52:10;;;;;;;19.55;15.45;;;8.40;99.90;;;;;;5011230;28;20213;-90
2022/11/11 18:54:46;;;;;;;23.27;15.48;;;8.30;99.90;;;;;;4996206;28;20318;-89
2022/11/11 18:57:17;;;;;;;22.45;17.13;;;8.30;99.90;;;;;;5010595;28;20205;-89
2022/11/11 18:59:44;;;;;;;20.23;15.75;;;8.50;99.90;;;;;;5012817;28;20226;-90
2022/11/11 19:02:16;;;;;;;22.92;16.55;;;8.60;99.90;;;;;;5014333;28;20203;-90
2022/11/11 19:04:58;;;;;;;24.98;17.83;;;8.70;99.90;;;;;;5011379;28;20227;-91
2022/11/11 19:07:28;;;;;;;23.73;17.55;;;8.60;99.90;;;;;;5009711;28;20275;-90
2022/11/11 19:10:27;;;;;;;22.83;15.90;;;8.50;99.90;;;;;;5007393;28;20647;-89
2022/11/11 19:13:17;;;;;;;22.15;15.80;;;8.50;99.90;;;;;;5003134;28;20261;-90
2022/11/11 19:15:44;;;;;;;21.27;16.92;;;8.30;99.90;;;;;;5009609;28;20633;-89
2022/11/11 19:18:11;;;;;;;28.38;17.67;;;8.00;99.90;;;;;;5007866;28;20284;-90
2022/11/11 19:20:38;;;;;;;22.60;17.52;;;7.80;99.90;;;;;;5010192;28;20199;-90
2022/11/11 19:23:05;;;;;;;22.10;16.90;;;7.70;99.90;;;;;;5012248;28;20223;-89
2022/11/11 19:25:32;;;;;;;24.40;18.05;;;7.80;99.90;;;;;;5010471;28;20749;-90
2022/11/11 19:28:06;;;;;;;25.00;19.20;;;8.10;99.90;;;;;;5010146;28;20287;-89
2022/11/11 19:30:38;;;;;;;23.85;18.13;;;8.20;99.90;;;;;;5013343;28;20286;-90
2022/11/11 19:33:05;;;;;;;24.55;17.60;;;7.90;99.90;;;;;;5012823;28;20561;-89
2022/11/11 19:36:05;;;;;;;25.13;18.48;;;7.90;99.90;;;;;;5013271;28;20280;-90
2022/11/11 19:38:34;;;;;;;26.27;17.45;;;8.10;99.90;;;;;;5008325;28;20321;-89
2022/11/11 19:41:08;;;;;;;23.38;17.67;;;8.20;99.90;;;;;;5012375;28;20275;-90
2022/11/11 19:43:46;;;;;;;20.88;16.65;;;8.40;99.90;;;;;;5011860;28;20194;-90
2022/11/11 19:46:17;;;;;;;17.77;14.02;;;8.40;99.90;;;;;;5012441;28;20282;-90
2022/11/11 19:48:45;;;;;;;19.08;15.05;;;8.40;99.90;;;;;;5013092;28;20208;-89
2022/11/11 19:51:24;;;;;;;22.95;14.77;;;8.40;99.90;;;;;;5012027;28;20367;-89
2022/11/11 19:54:04;;;;;;;19.40;13.73;;;8.40;99.90;;;;;;5009065;28;20341;-90
2022/11/11 19:56:40;;;;;;;18.02;13.77;;;8.40;99.90;;;;;;5007624;28;20211;-87
2022/11/11 19:59:07;;;;;;;19.13;13.73;;;8.40;99.90;;;;;;5009338;28;20282;-89
2022/11/11 20:01:35;;;;;;;17.02;13.52;;;8.30;99.90;;;;;;5011527;28;20302;-88
2022/11/11 20:04:04;;;;;;;25.27;15.00;;;8.30;99.90;;;;;;5008839;28;20211;-89
2022/11/11 20:06:32;;;;;;;21.45;15.48;;;8.10;99.90;;;;;;5008619;28;20207;-90
2022/11/11 20:12:22;;;;;;;37.30;20.55;;;8.00;99.90;;;;;;5014478;28;20198;-89
2022/11/11 20:14:52;;;;;;;48.05;22.98;;;8.00;99.90;;;;;;5012867;28;20238;-89
2022/11/11 20:17:53;;;;;;;37.67;20.20;;;8.00;99.90;;;;;;5012324;28;20236;-89
2022/11/11 20:20:28;;;;;;;48.35;23.25;;;7.70;99.90;;;;;;5007572;28;20199;-90
2022/11/11 20:22:55;;;;;;;42.28;23.77;;;7.70;99.90;;;;;;5010233;28;20226;-89
2022/11/11 20:25:28;;;;;;;63.00;35.38;;;7.80;99.90;;;;;;5010603;28;20254;-89
2022/11/11 20:27:55;;;;;;;55.83;35.33;;;7.90;99.90;;;;;;5002440;28;20282;-90
2022/11/11 20:30:22;;;;;;;74.70;48.60;;;7.90;99.90;;;;;;5010295;28;20269;-87
2022/11/11 20:32:49;;;;;;;29.98;19.65;;;7.90;99.90;;;;;;5007738;28;20357;-90
2022/11/11 20:35:17;;;;;;;24.42;20.15;;;7.70;99.90;;;;;;5008954;28;20644;-91
2022/11/11 20:37:44;;;;;;;24.17;17.17;;;7.40;99.90;;;;;;5006080;28;20286;-90
2022/11/11 20:40:12;;;;;;;24.63;17.30;;;7.10;99.90;;;;;;5011625;28;20310;-90
2022/11/11 20:42:40;;;;;;;38.25;23.65;;;7.20;99.90;;;;;;5009319;28;20233;-90
2022/11/11 20:45:08;;;;;;;26.00;18.02;;;7.30;99.90;;;;;;4996961;28;20215;-90
2022/11/11 20:47:34;;;;;;;35.95;22.17;;;7.30;99.90;;;;;;4996949;28;20211;-90
2022/11/11 20:50:01;;;;;;;27.88;18.23;;;7.30;99.90;;;;;;4998364;28;21203;-91
2022/11/11 20:52:30;;;;;;;18.73;13.90;;;7.20;99.90;;;;;;5004284;28;20200;-91
2022/11/11 20:54:56;;;;;;;27.73;17.20;;;7.00;99.90;;;;;;5005285;28;20222;-91
2022/11/11 20:57:28;;;;;;;18.45;13.27;;;7.00;99.90;;;;;;5005456;28;20286;-90
2022/11/11 20:59:55;;;;;;;21.55;13.60;;;6.80;99.90;;;;;;5007858;28;20223;-90
2022/11/11 21:02:34;;;;;;;19.48;13.25;;;6.60;99.90;;;;;;5007818;28;20659;-90
2022/11/11 21:05:05;;;;;;;17.45;13.48;;;6.50;99.90;;;;;;5007563;28;20350;-89
2022/11/11 21:07:33;;;;;;;18.95;13.40;;;6.40;99.90;;;;;;5004749;28;20238;-90
2022/11/11 21:10:00;;;;;;;20.90;12.98;;;6.30;99.90;;;;;;5003439;28;20211;-89
2022/11/11 21:12:27;;;;;;;20.17;14.38;;;6.20;99.90;;;;;;5010274;28;20293;-89
2022/11/11 21:14:54;;;;;;;53.60;37.00;;;6.20;99.90;;;;;;5006539;28;20199;-90
2022/11/11 21:17:22;;;;;;;46.00;32.73;;;6.60;99.90;;;;;;5007278;28;20596;-89
2022/11/11 21:19:49;;;;;;;38.37;26.67;;;6.70;99.90;;;;;;5007286;28;20206;-89
2022/11/11 21:22:16;;;;;;;26.67;18.50;;;6.80;99.90;;;;;;5005366;28;20235;-89
2022/11/11 21:24:44;;;;;;;26.17;17.90;;;6.70;99.90;;;;;;5007846;28;20233;-89
2022/11/11 21:27:11;;;;;;;20.00;15.52;;;6.60;99.90;;;;;;5004093;28;20207;-89
2022/11/11 21:29:38;;;;;;;27.83;19.20;;;6.50;99.90;;;;;;5006297;28;20207;-88
2022/11/11 21:32:05;;;;;;;16.10;11.80;;;6.60;99.90;;;;;;5003220;28;20318;-90
2022/11/11 21:34:32;;;;;;;20.83;13.20;;;6.50;99.90;;;;;;5007184;28;20663;-89
2022/11/11 21:36:59;;;;;;;23.10;16.47;;;6.30;99.90;;;;;;5006053;28;20206;-89
2022/11/11 21:39:26;;;;;;;20.63;15.27;;;6.20;99.90;;;;;;5006743;28;20767;-89
2022/11/11 21:42:01;;;;;;;28.20;18.10;;;6.20;99.90;;;;;;5006332;28;20238;-90
2022/11/11 21:44:28;;;;;;;28.50;17.03;;;6.30;99.90;;;;;;5000439;28;20785;-88
2022/11/11 21:46:55;;;;;;;20.00;13.13;;;6.50;99.90;;;;;;5005704;28;20211;-89
2022/11/11 21:49:22;;;;;;;18.27;12.33;;;6.50;99.90;;;;;;5007598;28;20354;-89
2022/11/11 21:51:51;;;;;;;15.73;12.30;;;6.20;99.90;;;;;;5009685;28;20222;-89
2022/11/11 21:54:18;;;;;;;36.33;23.43;;;6.00;99.90;;;;;;5008312;28;20229;-88
2022/11/11 21:56:53;;;;;;;49.33;34.13;;;6.00;99.90;;;;;;5006219;28;20211;-89
2022/11/11 21:59:21;;;;;;;42.87;29.80;;;6.30;99.90;;;;;;5006271;28;20659;-89
2022/11/11 22:01:48;;;;;;;34.90;26.07;;;6.50;99.90;;;;;;5002918;28;20196;-89
2022/11/11 22:04:15;;;;;;;26.60;17.53;;;6.60;99.90;;;;;;5005291;28;20199;-89
2022/11/11 22:06:42;;;;;;;18.47;12.93;;;6.70;99.90;;;;;;5004678;28;20313;-90
2022/11/11 22:09:09;;;;;;;19.37;12.03;;;6.50;99.90;;;;;;5007311;28;20223;-89
2022/11/11 22:11:36;;;;;;;27.77;18.77;;;6.30;99.90;;;;;;5004455;28;20203;-89
2022/11/11 22:14:05;;;;;;;28.00;20.63;;;6.30;99.90;;;;;;5006421;28;20730;-89
2022/11/11 22:16:36;;;;;;;24.67;17.43;;;6.50;99.90;;;;;;5005015;28;20231;-90
2022/11/11 22:19:05;;;;;;;25.33;17.73;;;6.70;99.90;;;;;;5000141;28;20282;-90
2022/11/11 22:21:35;;;;;;;21.10;13.03;;;6.70;99.90;;;;;;5009321;28;20667;-90
2022/11/11 22:24:05;;;;;;;18.83;12.63;;;6.60;99.90;;;;;;5009629;28;20208;-90
2022/11/11 22:26:34;;;;;;;16.83;12.30;;;6.40;99.90;;;;;;5009267;28;20778;-90
2022/11/11 22:29:02;;;;;;;23.37;15.77;;;6.30;99.90;;;;;;5007425;28;20211;-90
2022/11/11 22:31:31;;;;;;;30.23;21.97;;;6.30;99.90;;;;;;5012419;28;20670;-90
2022/11/11 22:34:01;;;;;;;15.67;9.33;;;6.40;99.90;;;;;;5011990;28;20207;-90
2022/11/11 22:36:29;;;;;;;16.13;10.03;;;6.20;99.90;;;;;;5005140;28;20203;-90
2022/11/11 22:38:57;;;;;;;14.20;9.27;;;6.00;99.90;;;;;;5001765;28;20675;-90
2022/11/11 22:41:27;;;;;;;17.40;10.03;;;5.70;99.90;;;;;;5011235;28;20231;-89
2022/11/11 22:43:54;;;;;;;32.37;20.47;;;5.60;99.90;;;;;;5010366;28;20674;-89
2022/11/11 22:46:22;;;;;;;14.03;10.53;;;5.60;99.90;;;;;;5010609;28;20699;-90
2022/11/11 22:48:55;;;;;;;17.00;11.33;;;5.70;99.90;;;;;;5011034;28;20261;-89
2022/11/11 22:51:24;;;;;;;15.77;10.60;;;5.60;99.90;;;;;;5009333;28;20202;-90
2022/11/11 22:53:55;;;;;;;14.13;10.30;;;5.40;99.90;;;;;;5005893;28;20250;-90
2022/11/11 22:56:29;;;;;;;14.83;10.63;;;5.30;99.90;;;;;;5007218;28;20203;-90
2022/11/11 22:58:58;;;;;;;23.30;17.00;;;5.20;99.90;;;;;;5007316;28;20751;-90
2022/11/11 23:01:27;;;;;;;22.73;16.73;;;5.50;99.90;;;;;;5000021;28;20278;-90
2022/11/11 23:03:55;;;;;;;20.07;15.07;;;5.90;99.90;;;;;;5007797;28;20293;-91
2022/11/11 23:06:26;;;;;;;30.57;21.17;;;5.90;99.90;;;;;;5002070;28;20238;-91
2022/11/11 23:08:53;;;;;;;14.17;10.10;;;5.80;99.90;;;;;;5005865;28;20204;-91
2022/11/11 23:11:21;;;;;;;16.60;10.30;;;5.70;99.90;;;;;;5009889;28;20713;-90
2022/11/11 23:13:49;;;;;;;22.53;14.30;;;5.50;99.90;;;;;;5012710;28;20195;-90
2022/11/11 23:16:19;;;;;;;23.30;16.30;;;5.40;99.90;;;;;;5009847;28;20203;-90
2022/11/11 23:18:46;;;;;;;20.77;14.73;;;5.60;99.90;;;;;;5011220;28;20286;-90
2022/11/11 23:21:16;;;;;;;29.23;21.57;;;5.60;99.90;;;;;;5009233;28;20566;-90
2022/11/11 23:23:45;;;;;;;25.80;19.50;;;5.70;99.90;;;;;;5015975;28;20321;-90
2022/11/11 23:26:14;;;;;;;21.37;15.77;;;5.80;99.90;;;;;;5009969;28;20658;-89
2022/11/11 23:28:43;;;;;;;23.13;17.77;;;5.90;99.90;;;;;;5004471;28;20250;-90
2022/11/11 23:31:12;;;;;;;20.13;13.10;;;6.00;99.90;;;;;;5011249;28;20294;-90
2022/11/11 23:33:41;;;;;;;12.73;10.03;;;6.00;99.90;;;;;;5004715;28;20933;-90
2022/11/11 23:36:10;;;;;;;19.93;13.13;;;5.80;99.90;;;;;;5010665;28;20310;-90
2022/11/11 23:38:38;;;;;;;25.10;17.07;;;5.60;99.90;;;;;;5012087;28;20647;-91
2022/11/11 23:41:12;;;;;;;23.23;14.40;;;5.70;99.90;;;;;;5010352;28;20265;-90
2022/11/11 23:43:39;;;;;;;16.17;13.10;;;5.70;99.90;;;;;;5011858;28;20737;-90
2022/11/11 23:46:11;;;;;;;15.47;10.03;;;5.70;99.90;;;;;;5007842;28;20331;-90
2022/11/11 23:48:38;;;;;;;18.23;14.70;;;5.60;99.90;;;;;;5001882;28;20586;-90
2022/11/11 23:51:05;;;;;;;18.73;13.80;;;5.60;99.90;;;;;;5007441;28;20231;-90
2022/11/11 23:53:34;;;;;;;15.00;11.20;;;5.90;99.90;;;;;;5009931;28;20221;-90
2022/11/11 23:56:01;;;;;;;11.50;9.03;;;5.80;99.90;;;;;;5000864;28;20211;-91
2022/11/11 23:58:30;;;;;;;12.90;9.73;;;5.80;99.90;;;;;;5001955;28;20209;-90
